sensor_id;sensor_type;location;lat;lon;timestamp;pressure;altitude;pressure_sealevel;temperature;humidity
54308;BME280;40208;39.778;2.710;2023-04-09T00:01:46;101751.78;;;12.79;100.00
54308;BME280;40208;39.778;2.710;2023-04-09T00:04:30;101746.19;;;12.85;100.00
54308;BME280;40208;39.778;2.710;2023-04-09T00:07:15;101750.72;;;12.83;100.00
54308;BME280;40208;39.778;2.710;2023-04-09T00:13:41;101754.13;;;12.87;100.00
54308;BME280;40208;39.778;2.710;2023-04-09T00:16:25;101747.13;;;12.84;100.00
54308;BME280;40208;39.778;2.710;2023-04-09T00:19:12;101748.84;;;12.85;100.00
54308;BME280;40208;39.778;2.710;2023-04-09T00:21:56;101746.19;;;12.85;100.00
54308;BME280;40208;39.778;2.710;2023-04-09T00:24:41;101748.00;;;12.85;100.00
54308;BME280;40208;39.778;2.710;2023-04-09T00:27:42;101757.56;;;12.67;100.00
54308;BME280;40208;39.778;2.710;2023-04-09T00:34:01;101763.97;;;12.38;100.00
54308;BME280;40208;39.778;2.710;2023-04-09T00:36:46;101762.72;;;12.24;100.00
54308;BME280;40208;39.778;2.710;2023-04-09T00:39:31;101757.69;;;12.40;100.00
54308;BME280;40208;39.778;2.710;2023-04-09T00:42:15;101758.28;;;12.48;100.00
54308;BME280;40208;39.778;2.710;2023-04-09T00:45:00;101758.63;;;12.39;100.00
54308;BME280;40208;39.778;2.710;2023-04-09T00:47:45;101764.66;;;12.19;100.00
54308;BME280;40208;39.778;2.710;2023-04-09T00:50:30;101755.31;;;12.07;100.00
54308;BME280;40208;39.778;2.710;2023-04-09T00:53:14;101758.66;;;11.89;100.00
54308;BME280;40208;39.778;2.710;2023-04-09T00:55:59;101761.03;;;11.70;100.00
54308;BME280;40208;39.778;2.710;2023-04-09T00:58:44;101762.06;;;11.93;100.00
54308;BME280;40208;39.778;2.710;2023-04-09T01:01:29;101752.00;;;11.74;100.00
54308;BME280;40208;39.778;2.710;2023-04-09T01:04:13;101754.69;;;12.01;100.00
54308;BME280;40208;39.778;2.710;2023-04-09T01:07:01;101757.88;;;12.11;100.00
54308;BME280;40208;39.778;2.710;2023-04-09T01:10:04;101755.94;;;12.16;100.00
54308;BME280;40208;39.778;2.710;2023-04-09T01:16:11;101753.91;;;12.22;100.00
54308;BME280;40208;39.778;2.710;2023-04-09T01:19:00;101747.53;;;12.26;100.00
54308;BME280;40208;39.778;2.710;2023-04-09T01:21:46;101750.19;;;12.26;100.00
54308;BME280;40208;39.778;2.710;2023-04-09T01:27:15;101748.34;;;12.28;100.00
54308;BME280;40208;39.778;2.710;2023-04-09T01:29:59;101743.03;;;12.28;100.00
54308;BME280;40208;39.778;2.710;2023-04-09T01:32:47;101754.94;;;12.18;100.00
54308;BME280;40208;39.778;2.710;2023-04-09T01:35:33;101758.47;;;12.19;100.00
54308;BME280;40208;39.778;2.710;2023-04-09T01:38:18;101756.94;;;12.12;100.00
54308;BME280;40208;39.778;2.710;2023-04-09T01:41:03;101756.41;;;12.02;100.00
54308;BME280;40208;39.778;2.710;2023-04-09T01:43:49;101755.75;;;11.95;100.00
54308;BME280;40208;39.778;2.710;2023-04-09T01:46:34;101750.44;;;11.95;100.00
54308;BME280;40208;39.778;2.710;2023-04-09T01:49:19;101743.00;;;12.05;100.00
54308;BME280;40208;39.778;2.710;2023-04-09T01:52:03;101745.59;;;12.06;100.00
54308;BME280;40208;39.778;2.710;2023-04-09T01:54:48;101749.47;;;11.98;100.00
54308;BME280;40208;39.778;2.710;2023-04-09T01:57:33;101752.41;;;11.90;100.00
54308;BME280;40208;39.778;2.710;2023-04-09T02:00:17;101742.41;;;11.97;100.00
54308;BME280;40208;39.778;2.710;2023-04-09T02:08:46;101750.28;;;12.00;100.00
54308;BME280;40208;39.778;2.710;2023-04-09T02:11:30;101738.78;;;11.99;100.00
54308;BME280;40208;39.778;2.710;2023-04-09T02:14:16;101743.16;;;12.00;100.00
54308;BME280;40208;39.778;2.710;2023-04-09T02:17:01;101747.44;;;12.04;100.00
54308;BME280;40208;39.778;2.710;2023-04-09T02:19:46;101745.66;;;12.05;100.00
54308;BME280;40208;39.778;2.710;2023-04-09T02:22:31;101738.66;;;12.02;100.00
54308;BME280;40208;39.778;2.710;2023-04-09T02:25:15;101739.22;;;11.85;100.00
54308;BME280;40208;39.778;2.710;2023-04-09T02:28:00;101736.56;;;11.85;100.00
54308;BME280;40208;39.778;2.710;2023-04-09T02:30:44;101731.69;;;11.73;100.00
54308;BME280;40208;39.778;2.710;2023-04-09T02:33:29;101733.31;;;11.51;100.00
54308;BME280;40208;39.778;2.710;2023-04-09T02:36:14;101742.13;;;11.53;100.00
54308;BME280;40208;39.778;2.710;2023-04-09T02:38:58;101735.56;;;11.36;100.00
54308;BME280;40208;39.778;2.710;2023-04-09T02:41:43;101735.75;;;11.58;100.00
54308;BME280;40208;39.778;2.710;2023-04-09T02:44:28;101741.22;;;11.27;100.00
54308;BME280;40208;39.778;2.710;2023-04-09T02:47:12;101737.88;;;11.20;100.00
54308;BME280;40208;39.778;2.710;2023-04-09T02:49:57;101733.91;;;11.06;100.00
54308;BME280;40208;39.778;2.710;2023-04-09T02:52:41;101732.63;;;10.91;100.00
54308;BME280;40208;39.778;2.710;2023-04-09T02:55:28;101733.41;;;10.94;100.00
54308;BME280;40208;39.778;2.710;2023-04-09T02:58:13;101730.88;;;11.18;100.00
54308;BME280;40208;39.778;2.710;2023-04-09T03:00:58;101728.84;;;11.26;100.00
54308;BME280;40208;39.778;2.710;2023-04-09T03:03:42;101723.97;;;11.12;100.00
54308;BME280;40208;39.778;2.710;2023-04-09T03:06:27;101729.50;;;11.06;100.00
54308;BME280;40208;39.778;2.710;2023-04-09T03:09:12;101730.47;;;11.03;100.00
54308;BME280;40208;39.778;2.710;2023-04-09T03:11:56;101730.38;;;11.05;100.00
54308;BME280;40208;39.778;2.710;2023-04-09T03:14:41;101738.75;;;11.21;100.00
54308;BME280;40208;39.778;2.710;2023-04-09T03:17:26;101730.59;;;11.27;100.00
54308;BME280;40208;39.778;2.710;2023-04-09T03:20:10;101728.69;;;11.31;100.00
54308;BME280;40208;39.778;2.710;2023-04-09T03:22:55;101727.81;;;11.30;100.00
54308;BME280;40208;39.778;2.710;2023-04-09T03:25:40;101723.25;;;11.34;100.00
54308;BME280;40208;39.778;2.710;2023-04-09T03:28:24;101725.91;;;11.34;100.00
54308;BME280;40208;39.778;2.710;2023-04-09T03:31:09;101725.72;;;11.40;100.00
54308;BME280;40208;39.778;2.710;2023-04-09T03:33:53;101726.53;;;11.42;100.00
54308;BME280;40208;39.778;2.710;2023-04-09T03:36:37;101718.66;;;11.12;100.00
54308;BME280;40208;39.778;2.710;2023-04-09T03:39:22;101718.44;;;10.92;100.00
54308;BME280;40208;39.778;2.710;2023-04-09T03:42:06;101723.97;;;10.84;100.00
54308;BME280;40208;39.778;2.710;2023-04-09T03:44:53;101729.16;;;10.59;100.00
54308;BME280;40208;39.778;2.710;2023-04-09T03:47:38;101730.66;;;10.68;100.00
54308;BME280;40208;39.778;2.710;2023-04-09T03:50:23;101730.28;;;10.52;100.00
54308;BME280;40208;39.778;2.710;2023-04-09T03:53:07;101734.25;;;10.67;100.00
54308;BME280;40208;39.778;2.710;2023-04-09T03:55:52;101732.00;;;10.82;100.00
54308;BME280;40208;39.778;2.710;2023-04-09T03:58:36;101740.72;;;10.86;100.00
54308;BME280;40208;39.778;2.710;2023-04-09T04:01:21;101743.06;;;10.97;100.00
54308;BME280;40208;39.778;2.710;2023-04-09T04:04:05;101738.50;;;11.00;100.00
54308;BME280;40208;39.778;2.710;2023-04-09T04:06:50;101744.84;;;10.96;100.00
54308;BME280;40208;39.778;2.710;2023-04-09T04:09:34;101743.22;;;10.91;100.00
54308;BME280;40208;39.778;2.710;2023-04-09T04:12:19;101733.19;;;11.00;100.00
54308;BME280;40208;39.778;2.710;2023-04-09T04:15:04;101745.75;;;10.95;100.00
54308;BME280;40208;39.778;2.710;2023-04-09T04:17:48;101740.84;;;10.81;100.00
54308;BME280;40208;39.778;2.710;2023-04-09T04:20:33;101742.19;;;10.67;100.00
54308;BME280;40208;39.778;2.710;2023-04-09T04:23:17;101746.19;;;10.52;100.00
54308;BME280;40208;39.778;2.710;2023-04-09T04:26:05;101741.47;;;10.61;100.00
54308;BME280;40208;39.778;2.710;2023-04-09T04:28:53;101744.59;;;10.76;100.00
54308;BME280;40208;39.778;2.710;2023-04-09T04:31:37;101743.44;;;10.85;100.00
54308;BME280;40208;39.778;2.710;2023-04-09T04:34:22;101741.59;;;10.87;100.00
54308;BME280;40208;39.778;2.710;2023-04-09T04:37:06;101738.75;;;10.93;100.00
54308;BME280;40208;39.778;2.710;2023-04-09T04:39:51;101739.44;;;10.99;100.00
54308;BME280;40208;39.778;2.710;2023-04-09T04:42:35;101741.94;;;11.04;100.00
54308;BME280;40208;39.778;2.710;2023-04-09T04:45:20;101745.34;;;11.08;100.00
54308;BME280;40208;39.778;2.710;2023-04-09T04:48:04;101744.75;;;10.99;100.00
54308;BME280;40208;39.778;2.710;2023-04-09T04:50:58;101744.06;;;10.93;100.00
54308;BME280;40208;39.778;2.710;2023-04-09T04:53:44;101746.78;;;10.61;100.00
54308;BME280;40208;39.778;2.710;2023-04-09T04:56:28;101742.88;;;10.44;100.00
54308;BME280;40208;39.778;2.710;2023-04-09T04:59:13;101747.53;;;10.37;100.00
54308;BME280;40208;39.778;2.710;2023-04-09T05:01:57;101746.22;;;10.50;100.00
54308;BME280;40208;39.778;2.710;2023-04-09T05:04:42;101750.28;;;10.64;100.00
54308;BME280;40208;39.778;2.710;2023-04-09T05:07:26;101752.69;;;10.71;100.00
54308;BME280;40208;39.778;2.710;2023-04-09T05:10:11;101752.00;;;10.65;100.00
54308;BME280;40208;39.778;2.710;2023-04-09T05:12:55;101758.88;;;10.42;100.00
54308;BME280;40208;39.778;2.710;2023-04-09T05:15:40;101758.03;;;10.40;100.00
54308;BME280;40208;39.778;2.710;2023-04-09T05:18:24;101768.28;;;10.52;100.00
54308;BME280;40208;39.778;2.710;2023-04-09T05:21:09;101759.22;;;10.59;100.00
54308;BME280;40208;39.778;2.710;2023-04-09T05:23:54;101758.38;;;10.59;100.00
54308;BME280;40208;39.778;2.710;2023-04-09T05:26:38;101766.47;;;10.54;100.00
54308;BME280;40208;39.778;2.710;2023-04-09T05:29:23;101763.09;;;10.49;100.00
54308;BME280;40208;39.778;2.710;2023-04-09T05:32:08;101765.72;;;10.49;100.00
54308;BME280;40208;39.778;2.710;2023-04-09T05:34:52;101760.25;;;10.23;100.00
54308;BME280;40208;39.778;2.710;2023-04-09T05:37:37;101770.09;;;10.19;100.00
54308;BME280;40208;39.778;2.710;2023-04-09T05:40:21;101769.72;;;10.00;100.00
54308;BME280;40208;39.778;2.710;2023-04-09T05:43:06;101777.69;;;9.98;100.00
54308;BME280;40208;39.778;2.710;2023-04-09T05:45:53;101775.66;;;10.08;100.00
54308;BME280;40208;39.778;2.710;2023-04-09T05:48:37;101782.41;;;10.20;100.00
54308;BME280;40208;39.778;2.710;2023-04-09T05:51:22;101780.97;;;10.08;100.00
54308;BME280;40208;39.778;2.710;2023-04-09T05:54:07;101786.50;;;10.01;100.00
54308;BME280;40208;39.778;2.710;2023-04-09T05:56:51;101785.66;;;9.98;100.00
54308;BME280;40208;39.778;2.710;2023-04-09T05:59:36;101789.22;;;9.97;100.00
54308;BME280;40208;39.778;2.710;2023-04-09T06:02:20;101787.06;;;9.79;100.00
54308;BME280;40208;39.778;2.710;2023-04-09T06:05:05;101804.84;;;9.75;100.00
54308;BME280;40208;39.778;2.710;2023-04-09T06:07:50;101795.88;;;9.80;100.00
54308;BME280;40208;39.778;2.710;2023-04-09T06:10:35;101794.81;;;9.87;100.00
54308;BME280;40208;39.778;2.710;2023-04-09T06:13:19;101795.69;;;9.87;100.00
54308;BME280;40208;39.778;2.710;2023-04-09T06:16:05;101799.13;;;9.91;100.00
54308;BME280;40208;39.778;2.710;2023-04-09T06:18:49;101797.44;;;9.87;100.00
54308;BME280;40208;39.778;2.710;2023-04-09T06:21:37;101793.06;;;9.86;100.00
54308;BME280;40208;39.778;2.710;2023-04-09T06:24:22;101789.56;;;9.85;100.00
54308;BME280;40208;39.778;2.710;2023-04-09T06:27:07;101802.81;;;9.85;100.00
54308;BME280;40208;39.778;2.710;2023-04-09T06:29:51;101799.13;;;9.91;100.00
54308;BME280;40208;39.778;2.710;2023-04-09T06:32:36;101802.53;;;9.96;100.00
54308;BME280;40208;39.778;2.710;2023-04-09T06:35:20;101806.03;;;9.96;100.00
54308;BME280;40208;39.778;2.710;2023-04-09T06:38:05;101817.44;;;10.00;100.00
54308;BME280;40208;39.778;2.710;2023-04-09T06:40:49;101816.38;;;10.07;100.00
54308;BME280;40208;39.778;2.710;2023-04-09T06:43:35;101811.72;;;10.15;100.00
54308;BME280;40208;39.778;2.710;2023-04-09T06:46:20;101819.28;;;10.32;100.00
54308;BME280;40208;39.778;2.710;2023-04-09T06:49:05;101817.84;;;10.52;100.00
54308;BME280;40208;39.778;2.710;2023-04-09T06:51:49;101824.84;;;10.54;100.00
54308;BME280;40208;39.778;2.710;2023-04-09T06:54:36;101837.03;;;10.61;100.00
54308;BME280;40208;39.778;2.710;2023-04-09T06:57:21;101835.03;;;10.70;100.00
54308;BME280;40208;39.778;2.710;2023-04-09T07:00:05;101834.00;;;10.75;100.00
54308;BME280;40208;39.778;2.710;2023-04-09T07:02:51;101836.47;;;10.81;100.00
54308;BME280;40208;39.778;2.710;2023-04-09T07:05:36;101843.31;;;10.89;100.00
54308;BME280;40208;39.778;2.710;2023-04-09T07:08:21;101832.44;;;10.98;100.00
54308;BME280;40208;39.778;2.710;2023-04-09T07:11:06;101835.66;;;11.09;100.00
54308;BME280;40208;39.778;2.710;2023-04-09T07:13:51;101835.53;;;11.12;100.00
54308;BME280;40208;39.778;2.710;2023-04-09T07:16:36;101843.28;;;11.20;100.00
54308;BME280;40208;39.778;2.710;2023-04-09T07:19:20;101839.53;;;11.27;100.00
54308;BME280;40208;39.778;2.710;2023-04-09T07:22:05;101841.81;;;11.39;100.00
54308;BME280;40208;39.778;2.710;2023-04-09T07:24:49;101838.91;;;11.47;100.00
54308;BME280;40208;39.778;2.710;2023-04-09T07:27:37;101842.25;;;11.54;100.00
54308;BME280;40208;39.778;2.710;2023-04-09T07:30:21;101842.84;;;11.62;100.00
54308;BME280;40208;39.778;2.710;2023-04-09T07:33:06;101850.53;;;11.71;100.00
54308;BME280;40208;39.778;2.710;2023-04-09T07:35:50;101856.38;;;11.82;100.00
54308;BME280;40208;39.778;2.710;2023-04-09T07:38:35;101850.78;;;11.92;100.00
54308;BME280;40208;39.778;2.710;2023-04-09T07:41:20;101853.13;;;12.01;100.00
54308;BME280;40208;39.778;2.710;2023-04-09T07:44:04;101848.41;;;12.09;100.00
54308;BME280;40208;39.778;2.710;2023-04-09T07:46:49;101855.13;;;12.19;100.00
54308;BME280;40208;39.778;2.710;2023-04-09T07:49:34;101854.81;;;12.28;100.00
54308;BME280;40208;39.778;2.710;2023-04-09T07:52:19;101847.38;;;12.38;100.00
54308;BME280;40208;39.778;2.710;2023-04-09T07:55:04;101850.50;;;12.51;100.00
54308;BME280;40208;39.778;2.710;2023-04-09T07:57:48;101843.06;;;12.59;100.00
54308;BME280;40208;39.778;2.710;2023-04-09T08:00:34;101840.84;;;12.72;100.00
54308;BME280;40208;39.778;2.710;2023-04-09T08:03:19;101839.53;;;12.84;100.00
54308;BME280;40208;39.778;2.710;2023-04-09T08:06:04;101845.25;;;12.97;100.00
54308;BME280;40208;39.778;2.710;2023-04-09T08:08:49;101845.72;;;13.08;100.00
54308;BME280;40208;39.778;2.710;2023-04-09T08:11:33;101847.94;;;13.19;100.00
54308;BME280;40208;39.778;2.710;2023-04-09T08:14:18;101848.47;;;13.28;100.00
54308;BME280;40208;39.778;2.710;2023-04-09T08:17:03;101855.25;;;13.37;100.00
54308;BME280;40208;39.778;2.710;2023-04-09T08:19:47;101853.72;;;13.53;100.00
54308;BME280;40208;39.778;2.710;2023-04-09T08:22:33;101843.47;;;13.65;100.00
54308;BME280;40208;39.778;2.710;2023-04-09T08:25:17;101853.47;;;13.82;100.00
54308;BME280;40208;39.778;2.710;2023-04-09T08:28:02;101855.19;;;13.83;100.00
54308;BME280;40208;39.778;2.710;2023-04-09T08:30:47;101861.19;;;13.88;100.00
54308;BME280;40208;39.778;2.710;2023-04-09T08:33:32;101863.75;;;13.91;100.00
54308;BME280;40208;39.778;2.710;2023-04-09T08:36:17;101865.22;;;13.98;100.00
54308;BME280;40208;39.778;2.710;2023-04-09T08:39:02;101868.84;;;14.17;100.00
54308;BME280;40208;39.778;2.710;2023-04-09T08:41:46;101867.84;;;14.20;100.00
54308;BME280;40208;39.778;2.710;2023-04-09T08:44:31;101867.84;;;14.20;100.00
54308;BME280;40208;39.778;2.710;2023-04-09T08:47:17;101865.44;;;14.34;100.00
54308;BME280;40208;39.778;2.710;2023-04-09T08:50:02;101862.53;;;14.40;100.00
54308;BME280;40208;39.778;2.710;2023-04-09T08:52:47;101862.19;;;14.48;100.00
54308;BME280;40208;39.778;2.710;2023-04-09T08:55:32;101870.63;;;14.59;100.00
54308;BME280;40208;39.778;2.710;2023-04-09T08:58:20;101870.94;;;14.72;100.00
54308;BME280;40208;39.778;2.710;2023-04-09T09:01:16;101879.44;;;14.80;100.00
54308;BME280;40208;39.778;2.710;2023-04-09T09:04:02;101882.88;;;14.84;100.00
54308;BME280;40208;39.778;2.710;2023-04-09T09:06:47;101881.59;;;14.93;100.00
54308;BME280;40208;39.778;2.710;2023-04-09T09:09:31;101896.84;;;15.10;100.00
54308;BME280;40208;39.778;2.710;2023-04-09T09:12:38;101899.00;;;15.20;100.00
54308;BME280;40208;39.778;2.710;2023-04-09T09:15:24;101893.38;;;15.26;100.00
54308;BME280;40208;39.778;2.710;2023-04-09T09:18:10;101897.66;;;15.31;100.00
54308;BME280;40208;39.778;2.710;2023-04-09T09:28:06;101899.22;;;15.54;100.00
54308;BME280;40208;39.778;2.710;2023-04-09T09:30:50;101899.97;;;15.57;100.00
54308;BME280;40208;39.778;2.710;2023-04-09T09:33:35;101910.22;;;15.66;100.00
54308;BME280;40208;39.778;2.710;2023-04-09T09:36:31;101912.59;;;15.73;100.00
54308;BME280;40208;39.778;2.710;2023-04-09T09:39:16;101908.91;;;15.75;100.00
54308;BME280;40208;39.778;2.710;2023-04-09T09:42:07;101915.00;;;15.79;100.00
54308;BME280;40208;39.778;2.710;2023-04-09T09:44:54;101914.94;;;15.80;100.00
54308;BME280;40208;39.778;2.710;2023-04-09T09:47:39;101917.34;;;15.85;100.00
54308;BME280;40208;39.778;2.710;2023-04-09T09:50:24;101916.09;;;15.92;100.00
54308;BME280;40208;39.778;2.710;2023-04-09T09:53:11;101910.13;;;15.87;100.00
54308;BME280;40208;39.778;2.710;2023-04-09T09:55:57;101910.75;;;15.92;100.00
54308;BME280;40208;39.778;2.710;2023-04-09T09:58:44;101910.75;;;15.92;100.00
54308;BME280;40208;39.778;2.710;2023-04-09T10:01:32;101904.09;;;16.01;100.00
54308;BME280;40208;39.778;2.710;2023-04-09T10:04:17;101901.34;;;16.02;100.00
54308;BME280;40208;39.778;2.710;2023-04-09T10:07:03;101897.56;;;16.06;100.00
54308;BME280;40208;39.778;2.710;2023-04-09T10:09:49;101894.72;;;16.09;100.00
54308;BME280;40208;39.778;2.710;2023-04-09T10:12:35;101892.22;;;16.06;100.00
54308;BME280;40208;39.778;2.710;2023-04-09T10:15:19;101896.16;;;16.17;100.00
54308;BME280;40208;39.778;2.710;2023-04-09T10:18:04;101887.72;;;16.24;100.00
54308;BME280;40208;39.778;2.710;2023-04-09T10:23:43;101893.88;;;16.26;100.00
54308;BME280;40208;39.778;2.710;2023-04-09T10:26:31;101890.78;;;16.34;100.00
54308;BME280;40208;39.778;2.710;2023-04-09T10:29:17;101888.91;;;16.36;100.00
54308;BME280;40208;39.778;2.710;2023-04-09T10:32:09;101895.06;;;16.38;100.00
54308;BME280;40208;39.778;2.710;2023-04-09T10:34:55;101893.84;;;16.44;100.00
54308;BME280;40208;39.778;2.710;2023-04-09T10:37:40;101892.13;;;16.43;100.00
54308;BME280;40208;39.778;2.710;2023-04-09T10:40:31;101896.47;;;16.45;100.00
54308;BME280;40208;39.778;2.710;2023-04-09T10:43:17;101898.06;;;16.49;100.00
54308;BME280;40208;39.778;2.710;2023-04-09T10:46:03;101897.81;;;16.54;100.00
54308;BME280;40208;39.778;2.710;2023-04-09T10:48:48;101896.69;;;16.58;100.00
54308;BME280;40208;39.778;2.710;2023-04-09T10:51:39;101892.97;;;16.61;100.00
54308;BME280;40208;39.778;2.710;2023-04-09T10:57:20;101895.28;;;16.68;100.00
54308;BME280;40208;39.778;2.710;2023-04-09T11:00:05;101892.25;;;16.74;100.00
54308;BME280;40208;39.778;2.710;2023-04-09T11:05:40;101899.66;;;16.87;100.00
54308;BME280;40208;39.778;2.710;2023-04-09T11:08:27;101905.97;;;16.86;100.00
54308;BME280;40208;39.778;2.710;2023-04-09T11:11:12;101911.47;;;17.00;100.00
54308;BME280;40208;39.778;2.710;2023-04-09T11:14:00;101915.63;;;17.06;100.00
54308;BME280;40208;39.778;2.710;2023-04-09T11:16:48;101912.78;;;17.09;100.00
54308;BME280;40208;39.778;2.710;2023-04-09T11:19:33;101918.78;;;17.14;100.00
54308;BME280;40208;39.778;2.710;2023-04-09T11:22:17;101916.16;;;17.12;100.00
54308;BME280;40208;39.778;2.710;2023-04-09T11:25:02;101917.66;;;17.18;100.00
54308;BME280;40208;39.778;2.710;2023-04-09T11:27:47;101919.66;;;17.30;100.00
54308;BME280;40208;39.778;2.710;2023-04-09T11:30:31;101911.88;;;17.26;100.00
54308;BME280;40208;39.778;2.710;2023-04-09T11:33:17;101920.53;;;17.31;100.00
54308;BME280;40208;39.778;2.710;2023-04-09T11:36:03;101912.91;;;17.39;100.00
54308;BME280;40208;39.778;2.710;2023-04-09T11:38:51;101898.53;;;17.40;100.00
54308;BME280;40208;39.778;2.710;2023-04-09T11:41:38;101909.97;;;17.44;100.00
54308;BME280;40208;39.778;2.710;2023-04-09T11:44:23;101902.00;;;17.42;100.00
54308;BME280;40208;39.778;2.710;2023-04-09T11:47:07;101898.88;;;17.50;100.00
54308;BME280;40208;39.778;2.710;2023-04-09T11:49:53;101899.84;;;17.49;100.00
54308;BME280;40208;39.778;2.710;2023-04-09T11:52:37;101900.59;;;17.51;100.00
54308;BME280;40208;39.778;2.710;2023-04-09T11:58:09;101889.59;;;17.55;100.00
54308;BME280;40208;39.778;2.710;2023-04-09T12:00:56;101891.50;;;17.53;100.00
54308;BME280;40208;39.778;2.710;2023-04-09T12:03:41;101875.16;;;17.58;100.00
54308;BME280;40208;39.778;2.710;2023-04-09T12:06:26;101875.16;;;17.58;100.00
54308;BME280;40208;39.778;2.710;2023-04-09T12:09:11;101880.38;;;17.61;100.00
54308;BME280;40208;39.778;2.710;2023-04-09T12:11:57;101879.91;;;17.69;100.00
54308;BME280;40208;39.778;2.710;2023-04-09T12:14:44;101867.34;;;17.69;100.00
54308;BME280;40208;39.778;2.710;2023-04-09T12:17:28;101864.59;;;17.71;100.00
54308;BME280;40208;39.778;2.710;2023-04-09T12:20:28;101865.44;;;17.71;100.00
54308;BME280;40208;39.778;2.710;2023-04-09T12:23:13;101861.03;;;17.70;100.00
54308;BME280;40208;39.778;2.710;2023-04-09T12:25:57;101861.03;;;17.70;100.00
54308;BME280;40208;39.778;2.710;2023-04-09T12:28:45;101867.72;;;17.63;100.00
54308;BME280;40208;39.778;2.710;2023-04-09T12:31:30;101867.72;;;17.63;100.00
54308;BME280;40208;39.778;2.710;2023-04-09T12:34:14;101873.94;;;17.64;100.00
54308;BME280;40208;39.778;2.710;2023-04-09T12:36:59;101864.94;;;17.65;100.00
54308;BME280;40208;39.778;2.710;2023-04-09T12:39:43;101863.88;;;17.67;100.00
54308;BME280;40208;39.778;2.710;2023-04-09T12:42:28;101863.03;;;17.67;100.00
54308;BME280;40208;39.778;2.710;2023-04-09T12:45:14;101862.16;;;17.66;100.00
54308;BME280;40208;39.778;2.710;2023-04-09T12:47:59;101866.84;;;17.63;100.00
54308;BME280;40208;39.778;2.710;2023-04-09T12:50:43;101866.16;;;17.59;100.00
54308;BME280;40208;39.778;2.710;2023-04-09T12:53:28;101868.91;;;17.57;100.00
54308;BME280;40208;39.778;2.710;2023-04-09T12:56:13;101862.88;;;17.54;100.00
54308;BME280;40208;39.778;2.710;2023-04-09T12:58:57;101856.53;;;17.55;100.00
54308;BME280;40208;39.778;2.710;2023-04-09T13:01:42;101861.13;;;17.53;100.00
54308;BME280;40208;39.778;2.710;2023-04-09T13:04:26;101859.31;;;17.53;100.00
54308;BME280;40208;39.778;2.710;2023-04-09T13:07:11;101860.69;;;17.60;100.00
54308;BME280;40208;39.778;2.710;2023-04-09T13:09:56;101854.56;;;17.58;100.00
54308;BME280;40208;39.778;2.710;2023-04-09T13:12:40;101854.63;;;17.57;100.00
54308;BME280;40208;39.778;2.710;2023-04-09T13:15:25;101858.00;;;17.60;100.00
54308;BME280;40208;39.778;2.710;2023-04-09T13:18:11;101851.50;;;17.65;100.00
54308;BME280;40208;39.778;2.710;2023-04-09T13:20:56;101852.22;;;17.68;100.00
54308;BME280;40208;39.778;2.710;2023-04-09T13:23:41;101860.41;;;17.65;100.00
54308;BME280;40208;39.778;2.710;2023-04-09T13:26:26;101850.56;;;17.66;100.00
54308;BME280;40208;39.778;2.710;2023-04-09T13:29:10;101856.97;;;17.63;100.00
54308;BME280;40208;39.778;2.710;2023-04-09T13:31:55;101861.31;;;17.66;100.00
54308;BME280;40208;39.778;2.710;2023-04-09T13:34:40;101841.81;;;17.62;100.00
54308;BME280;40208;39.778;2.710;2023-04-09T13:37:24;101850.47;;;17.67;100.00
54308;BME280;40208;39.778;2.710;2023-04-09T13:40:09;101844.22;;;17.67;100.00
54308;BME280;40208;39.778;2.710;2023-04-09T13:42:54;101851.34;;;17.68;100.00
54308;BME280;40208;39.778;2.710;2023-04-09T13:45:39;101835.72;;;17.74;100.00
54308;BME280;40208;39.778;2.710;2023-04-09T13:48:24;101825.16;;;17.71;100.00
54308;BME280;40208;39.778;2.710;2023-04-09T13:51:08;101825.88;;;17.75;100.00
54308;BME280;40208;39.778;2.710;2023-04-09T13:53:53;101818.56;;;17.77;100.00
54308;BME280;40208;39.778;2.710;2023-04-09T13:56:37;101817.63;;;17.78;100.00
54308;BME280;40208;39.778;2.710;2023-04-09T13:59:22;101817.47;;;17.81;100.00
54308;BME280;40208;39.778;2.710;2023-04-09T14:02:07;101816.63;;;17.80;100.00
54308;BME280;40208;39.778;2.710;2023-04-09T14:04:51;101814.78;;;17.81;100.00
54308;BME280;40208;39.778;2.710;2023-04-09T14:07:36;101813.66;;;17.85;100.00
54308;BME280;40208;39.778;2.710;2023-04-09T14:10:20;101816.22;;;17.87;100.00
54308;BME280;40208;39.778;2.710;2023-04-09T14:13:05;101822.56;;;17.86;100.00
54308;BME280;40208;39.778;2.710;2023-04-09T14:15:53;101823.16;;;17.91;100.00
54308;BME280;40208;39.778;2.710;2023-04-09T14:18:38;101815.97;;;17.91;100.00
54308;BME280;40208;39.778;2.710;2023-04-09T14:21:23;101813.00;;;17.96;100.00
54308;BME280;40208;39.778;2.710;2023-04-09T14:24:08;101815.59;;;17.97;100.00
54308;BME280;40208;39.778;2.710;2023-04-09T14:26:52;101807.75;;;17.94;100.00
54308;BME280;40208;39.778;2.710;2023-04-09T14:29:37;101804.28;;;17.92;100.00
54308;BME280;40208;39.778;2.710;2023-04-09T14:32:22;101800.81;;;17.90;100.00
54308;BME280;40208;39.778;2.710;2023-04-09T14:35:07;101800.22;;;17.85;100.00
54308;BME280;40208;39.778;2.710;2023-04-09T14:37:52;101801.94;;;17.86;100.00
54308;BME280;40208;39.778;2.710;2023-04-09T14:40:36;101798.47;;;17.84;100.00
54308;BME280;40208;39.778;2.710;2023-04-09T14:43:21;101804.91;;;17.82;100.00
54308;BME280;40208;39.778;2.710;2023-04-09T14:46:05;101802.38;;;17.78;100.00
54308;BME280;40208;39.778;2.710;2023-04-09T14:48:54;101796.03;;;17.79;100.00
54308;BME280;40208;39.778;2.710;2023-04-09T14:51:38;101779.00;;;17.80;100.00